createdAt,value
2023-02-23T00:00:21.210Z,99557.16
2023-02-23T00:02:49.755Z,99559.28
2023-02-23T00:05:17.309Z,99563.41
2023-02-23T00:07:45.142Z,99554.16
2023-02-23T00:10:13.474Z,99553.34
2023-02-23T00:12:41.458Z,99567.37
2023-02-23T00:15:08.890Z,99564.06
2023-02-23T00:17:36.897Z,99557.72
2023-02-23T00:20:08.002Z,99554.75
2023-02-23T00:22:35.458Z,99562.50
2023-02-23T00:25:03.336Z,99564.63
2023-02-23T00:27:30.563Z,99563.44
2023-02-23T00:29:58.024Z,99563.06
2023-02-23T00:32:25.403Z,99559.84
2023-02-23T00:34:52.581Z,99561.47
2023-02-23T00:37:20.083Z,99558.06
2023-02-23T00:39:48.722Z,99549.56
2023-02-23T00:42:16.002Z,99563.06
2023-02-23T00:44:43.444Z,99567.31
2023-02-23T00:47:10.840Z,99561.47
2023-02-23T00:49:37.992Z,99572.09
2023-02-23T00:52:05.516Z,99572.69
2023-02-23T00:54:32.760Z,99570.91
2023-02-23T00:56:59.929Z,99564.47
2023-02-23T00:59:29.666Z,99566.06
2023-02-23T01:01:57.613Z,99567.09
2023-02-23T01:04:24.756Z,99563.47
2023-02-23T01:06:52.171Z,99574.22
2023-02-23T01:09:28.162Z,99581.50
2023-02-23T01:11:56.651Z,99572.53
2023-02-23T01:14:23.871Z,99571.28
2023-02-23T01:16:51.282Z,99571.94
2023-02-23T01:19:21.289Z,99568.00
2023-02-23T01:21:49.220Z,99574.19
2023-02-23T01:24:17.913Z,99571.09
2023-02-23T01:26:45.428Z,99572.00
2023-02-23T01:29:16.630Z,99567.37
2023-02-23T01:31:45.105Z,99563.75
2023-02-23T01:34:15.723Z,99565.34
2023-02-23T01:36:45.132Z,99571.00
2023-02-23T01:39:14.313Z,99573.91
2023-02-23T01:41:42.507Z,99562.91
2023-02-23T01:44:12.742Z,99566.03
2023-02-23T01:46:41.063Z,99567.53
2023-02-23T01:49:09.182Z,99565.59
2023-02-23T01:51:40.993Z,99573.28
2023-02-23T01:54:16.275Z,99569.28
2023-02-23T01:56:49.271Z,99574.37
2023-02-23T01:59:16.895Z,99570.50
2023-02-23T02:01:44.123Z,99561.22
2023-02-23T02:04:16.464Z,99558.59
2023-02-23T02:06:45.169Z,99567.06
2023-02-23T02:09:17.444Z,99562.91
2023-02-23T02:11:46.433Z,99562.81
2023-02-23T02:14:16.636Z,99559.31
2023-02-23T02:16:46.883Z,99560.03
2023-02-23T02:19:18.725Z,99562.06
2023-02-23T02:22:04.939Z,99562.62
2023-02-23T02:24:38.433Z,99562.06
2023-02-23T02:27:20.913Z,99558.41
2023-02-23T02:29:52.955Z,99553.72
2023-02-23T02:32:20.140Z,99555.50
2023-02-23T02:34:48.456Z,99562.00
2023-02-23T02:37:21.055Z,99555.72
2023-02-23T02:39:53.650Z,99557.75
2023-02-23T02:42:35.010Z,99558.69
2023-02-23T02:45:22.757Z,99562.12
2023-02-23T02:47:55.105Z,99555.59
2023-02-23T02:50:31.500Z,99563.59
2023-02-23T02:53:05.491Z,99564.34
2023-02-23T02:55:34.792Z,99563.78
2023-02-23T02:58:02.549Z,99566.09
2023-02-23T03:00:49.972Z,99568.72
2023-02-23T03:03:48.966Z,99565.84
2023-02-23T03:06:35.074Z,99570.94
2023-02-23T03:09:41.530Z,99569.22
2023-02-23T03:12:30.026Z,99566.00
2023-02-23T03:15:28.413Z,99572.28
2023-02-23T03:18:17.876Z,99572.34
2023-02-23T03:21:09.044Z,99569.75
2023-02-23T03:24:02.968Z,99569.00
2023-02-23T03:26:55.217Z,99566.78
2023-02-23T03:29:47.387Z,99569.16
2023-02-23T03:32:36.489Z,99568.25
2023-02-23T03:35:32.162Z,99575.28
2023-02-23T03:38:22.394Z,99577.09
2023-02-23T03:41:08.167Z,99576.44
2023-02-23T03:43:55.920Z,99571.38
2023-02-23T03:46:41.886Z,99577.75
2023-02-23T03:49:28.071Z,99582.78
2023-02-23T03:52:18.659Z,99577.28
2023-02-23T03:55:06.368Z,99580.81
2023-02-23T03:57:52.654Z,99577.88
2023-02-23T04:00:41.254Z,99577.03
2023-02-23T04:03:27.545Z,99580.06
2023-02-23T04:06:13.235Z,99582.41
2023-02-23T04:08:59.441Z,99575.50
2023-02-23T04:11:57.857Z,99576.28
2023-02-23T04:14:27.138Z,99577.13
2023-02-23T04:16:54.231Z,99579.75
2023-02-23T04:19:21.387Z,99576.16
2023-02-23T04:21:48.854Z,99576.25
2023-02-23T04:24:16.236Z,99578.00
2023-02-23T04:26:43.560Z,99576.00
2023-02-23T04:29:11.731Z,99579.78
2023-02-23T04:31:38.964Z,99580.44
2023-02-23T04:34:06.186Z,99585.25
2023-02-23T04:36:33.782Z,99577.78
2023-02-23T04:39:00.927Z,99579.75
2023-02-23T04:41:28.111Z,99580.81
2023-02-23T04:43:55.491Z,99582.09
2023-02-23T04:46:22.892Z,99574.56
2023-02-23T04:48:50.106Z,99581.78
2023-02-23T04:51:17.717Z,99581.41
2023-02-23T04:53:44.974Z,99588.41
2023-02-23T04:56:12.121Z,99579.13
2023-02-23T04:58:39.516Z,99581.44
2023-02-23T05:01:07.527Z,99581.75
2023-02-23T05:03:35.144Z,99580.31
2023-02-23T05:06:02.704Z,99578.72
2023-02-23T05:08:29.824Z,99578.16
2023-02-23T05:10:57.054Z,99580.94
2023-02-23T05:13:24.609Z,99583.97
2023-02-23T05:15:55.781Z,99587.78
2023-02-23T05:18:23.694Z,99592.16
2023-02-23T05:20:51.116Z,99596.16
2023-02-23T05:23:18.466Z,99587.97
2023-02-23T05:25:45.677Z,99585.56
2023-02-23T05:28:13.142Z,99595.53
2023-02-23T05:30:40.365Z,99594.47
2023-02-23T05:33:07.541Z,99596.25
2023-02-23T05:35:35.704Z,99593.19
2023-02-23T05:38:02.853Z,99598.44
2023-02-23T05:40:30.257Z,99594.78
2023-02-23T05:43:00.437Z,99598.38
2023-02-23T05:45:27.733Z,99596.53
2023-02-23T05:47:55.017Z,99595.50
2023-02-23T05:50:22.458Z,99599.44
2023-02-23T05:52:49.578Z,99597.97
2023-02-23T05:55:16.809Z,99602.97
2023-02-23T05:57:45.543Z,99606.47
2023-02-23T06:00:15.675Z,99604.19
2023-02-23T06:02:43.215Z,99606.50
2023-02-23T06:05:11.243Z,99614.03
2023-02-23T06:07:38.351Z,99612.72
2023-02-23T06:10:06.013Z,99619.25
2023-02-23T06:12:33.185Z,99619.50
2023-02-23T06:15:00.308Z,99626.63
2023-02-23T06:17:27.771Z,99631.91
2023-02-23T06:19:55.193Z,99640.19
2023-02-23T06:22:22.892Z,99636.06
2023-02-23T06:24:50.406Z,99636.63
2023-02-23T06:27:17.584Z,99642.13
2023-02-23T06:29:44.717Z,99641.69
2023-02-23T06:32:12.243Z,99654.56
2023-02-23T06:34:40.501Z,99648.00
2023-02-23T06:37:09.853Z,99653.28
2023-02-23T06:39:37.321Z,99653.25
2023-02-23T06:42:04.431Z,99660.94
2023-02-23T06:44:35.345Z,99661.66
2023-02-23T06:47:05.686Z,99662.03
2023-02-23T06:49:32.950Z,99668.44
2023-02-23T06:52:00.199Z,99670.25
2023-02-23T06:54:27.632Z,99666.31
2023-02-23T06:56:56.766Z,99671.63
2023-02-23T06:59:24.332Z,99674.03
2023-02-23T07:01:51.823Z,99669.09
2023-02-23T07:04:19.127Z,99669.94
2023-02-23T07:06:46.329Z,99675.00
2023-02-23T07:09:15.531Z,99677.69
2023-02-23T07:11:44.748Z,99675.75
2023-02-23T07:14:15.364Z,99673.87
2023-02-23T07:16:48.875Z,99677.22
2023-02-23T07:19:16.191Z,99682.75
2023-02-23T07:21:43.304Z,99685.97
2023-02-23T07:24:10.746Z,99673.13
2023-02-23T07:26:37.918Z,99684.09
2023-02-23T07:29:05.072Z,99681.75
2023-02-23T07:31:32.564Z,99684.66
2023-02-23T07:33:59.795Z,99682.59
2023-02-23T07:36:26.958Z,99683.88
2023-02-23T07:38:54.452Z,99689.63
2023-02-23T07:41:22.199Z,99688.34
2023-02-23T07:43:49.756Z,99683.63
2023-02-23T07:46:17.499Z,99682.44
2023-02-23T07:48:44.995Z,99685.94
2023-02-23T07:51:12.905Z,99687.63
2023-02-23T07:53:40.991Z,99691.81
2023-02-23T07:56:10.957Z,99688.22
2023-02-23T07:58:38.738Z,99680.50
2023-02-23T08:01:06.304Z,99693.31
2023-02-23T08:03:33.837Z,99689.31
2023-02-23T08:06:01.012Z,99685.09
2023-02-23T08:08:28.214Z,99686.50
2023-02-23T08:11:02.136Z,99683.19
2023-02-23T08:13:29.885Z,99687.41
2023-02-23T08:15:57.619Z,99687.00
2023-02-23T08:18:24.957Z,99687.06
2023-02-23T08:20:57.509Z,99690.00
2023-02-23T08:23:24.981Z,99696.87
2023-02-23T08:25:53.947Z,99695.34
2023-02-23T08:28:21.174Z,99694.94
2023-02-23T08:30:48.755Z,99698.69
2023-02-23T08:33:15.951Z,99705.69
2023-02-23T08:35:43.159Z,99707.91
2023-02-23T08:38:10.689Z,99705.94
2023-02-23T08:40:37.880Z,99702.84
2023-02-23T08:43:05.102Z,99707.50
2023-02-23T08:45:32.573Z,99707.19
2023-02-23T08:47:59.926Z,99702.75
2023-02-23T08:50:27.569Z,99707.22
2023-02-23T08:52:55.202Z,99704.41
2023-02-23T08:55:23.939Z,99712.88
2023-02-23T08:57:51.099Z,99710.72
2023-02-23T09:00:18.909Z,99712.56
2023-02-23T09:02:48.314Z,99711.22
2023-02-23T09:05:15.670Z,99711.13
2023-02-23T09:07:46.569Z,99712.47
2023-02-23T09:10:15.031Z,99714.91
2023-02-23T09:12:42.463Z,99710.91
2023-02-23T09:15:09.872Z,99705.50
2023-02-23T09:17:37.071Z,99710.28
2023-02-23T09:20:05.248Z,99716.88
2023-02-23T09:22:32.550Z,99714.31
2023-02-23T09:24:59.674Z,99721.34
2023-02-23T09:27:27.170Z,99711.22
2023-02-23T09:29:54.392Z,99718.94
2023-02-23T09:32:21.661Z,99717.34
2023-02-23T09:34:49.741Z,99714.84
2023-02-23T09:37:16.989Z,99717.84
2023-02-23T09:39:45.758Z,99725.34
2023-02-23T09:42:13.231Z,99720.41
2023-02-23T09:44:46.661Z,99722.81
2023-02-23T09:47:36.377Z,99717.84
2023-02-23T09:50:04.580Z,99721.97
2023-02-23T09:52:39.410Z,99722.50
2023-02-23T09:55:06.911Z,99724.44
2023-02-23T09:57:38.518Z,99726.28
2023-02-23T10:00:32.449Z,99721.84
2023-02-23T10:03:23.221Z,99720.53
2023-02-23T10:05:54.838Z,99714.31
2023-02-23T10:08:24.303Z,99721.13
2023-02-23T10:10:55.007Z,99718.37
2023-02-23T10:13:28.520Z,99720.50
2023-02-23T10:15:57.702Z,99725.03
2023-02-23T10:18:44.969Z,99722.66
2023-02-23T10:21:18.710Z,99724.50
2023-02-23T10:23:48.413Z,99723.59
2023-02-23T10:26:16.672Z,99730.03
2023-02-23T10:28:44.913Z,99730.16
2023-02-23T10:31:23.615Z,99719.06
2023-02-23T10:33:50.845Z,99722.22
2023-02-23T10:36:19.775Z,99717.84
2023-02-23T10:38:47.057Z,99709.88
2023-02-23T10:41:15.062Z,99708.59
2023-02-23T10:43:42.600Z,99709.72
2023-02-23T10:46:11.991Z,99705.16
2023-02-23T10:48:43.285Z,99704.56
2023-02-23T10:51:16.537Z,99702.84
2023-02-23T10:53:43.763Z,99701.38
2023-02-23T10:56:13.797Z,99704.22
2023-02-23T10:58:55.145Z,99694.19
2023-02-23T11:02:00.463Z,99693.09
2023-02-23T11:04:31.896Z,99694.53
2023-02-23T11:07:07.000Z,99694.66
2023-02-23T11:09:45.680Z,99689.94
2023-02-23T11:12:29.708Z,99680.53
2023-02-23T11:14:57.363Z,99685.69
2023-02-23T11:17:29.688Z,99678.75
2023-02-23T11:20:03.184Z,99670.69
2023-02-23T11:22:31.345Z,99672.13
2023-02-23T11:24:58.546Z,99671.59
2023-02-23T11:27:26.585Z,99670.72
2023-02-23T11:29:55.307Z,99672.94
2023-02-23T11:32:23.940Z,99673.13
2023-02-23T11:35:11.084Z,99668.69
2023-02-23T11:37:38.521Z,99664.22
2023-02-23T11:40:17.951Z,99669.78
2023-02-23T11:42:55.638Z,99658.50
2023-02-23T11:45:23.570Z,99665.06
2023-02-23T11:47:51.813Z,99661.59
2023-02-23T11:50:26.458Z,99656.66
2023-02-23T11:52:59.452Z,99656.28
2023-02-23T11:55:26.919Z,99653.50
2023-02-23T11:57:56.839Z,99651.69
2023-02-23T12:00:25.341Z,99654.19
2023-02-23T12:02:55.510Z,99646.72
2023-02-23T12:05:27.004Z,99650.41
2023-02-23T12:07:56.300Z,99648.75
2023-02-23T12:10:24.821Z,99644.16
2023-02-23T12:12:51.977Z,99642.72
2023-02-23T12:15:22.554Z,99634.78
2023-02-23T12:17:51.595Z,99633.59
2023-02-23T12:20:21.619Z,99625.25
2023-02-23T12:22:51.493Z,99626.47
2023-02-23T12:25:23.105Z,99621.56
2023-02-23T12:27:53.914Z,99623.31
2023-02-23T12:30:36.448Z,99616.81
2023-02-23T12:33:10.066Z,99613.06
2023-02-23T12:35:56.155Z,99614.81
2023-02-23T12:38:30.886Z,99620.91
2023-02-23T12:41:11.379Z,99612.09
2023-02-23T12:43:59.019Z,99606.97
2023-02-23T12:46:26.864Z,99605.88
2023-02-23T12:49:00.553Z,99594.84
2023-02-23T12:51:30.313Z,99593.19
2023-02-23T12:53:57.764Z,99594.81
2023-02-23T12:56:44.252Z,99583.63
2023-02-23T12:59:21.972Z,99597.50
2023-02-23T13:01:52.289Z,99585.53
2023-02-23T13:04:25.525Z,99578.91
2023-02-23T13:07:11.923Z,99573.31
2023-02-23T13:09:39.416Z,99574.22
2023-02-23T13:12:15.256Z,99572.22
2023-02-23T13:14:45.838Z,99569.22
2023-02-23T13:17:22.430Z,99561.25
2023-02-23T13:19:50.997Z,99561.59
2023-02-23T13:22:36.700Z,99558.41
2023-02-23T13:25:07.750Z,99564.81
2023-02-23T13:27:35.995Z,99568.03
2023-02-23T13:30:04.031Z,99564.25
2023-02-23T13:32:32.591Z,99568.09
2023-02-23T13:35:00.889Z,99568.38
2023-02-23T13:37:35.096Z,99554.66
2023-02-23T13:40:02.342Z,99564.63
2023-02-23T13:42:30.954Z,99558.16
2023-02-23T13:45:12.846Z,99557.16
2023-02-23T13:47:46.520Z,99560.38
2023-02-23T13:50:25.474Z,99551.34
2023-02-23T13:52:58.417Z,99556.19
2023-02-23T13:55:25.578Z,99546.75
2023-02-23T13:57:53.788Z,99549.84
2023-02-23T14:00:21.553Z,99546.47
2023-02-23T14:02:49.329Z,99544.84
2023-02-23T14:05:16.515Z,99551.53
2023-02-23T14:07:45.130Z,99550.91
2023-02-23T14:10:25.572Z,99548.50
2023-02-23T14:13:11.124Z,99550.03
2023-02-23T14:15:38.511Z,99549.19
2023-02-23T14:18:17.742Z,99543.06
2023-02-23T14:20:51.241Z,99545.81
2023-02-23T14:23:18.669Z,99547.94
2023-02-23T14:25:46.741Z,99550.50
2023-02-23T14:28:30.730Z,99550.50
2023-02-23T14:31:13.305Z,99549.06
2023-02-23T14:33:45.760Z,99546.25
2023-02-23T14:36:33.521Z,99547.38
2023-02-23T14:39:01.177Z,99548.91
2023-02-23T14:41:35.884Z,99539.50
2023-02-23T14:44:07.846Z,99544.25
2023-02-23T14:46:38.227Z,99546.28
2023-02-23T14:49:12.559Z,99546.78
2023-02-23T14:51:42.513Z,99538.28
2023-02-23T14:54:11.479Z,99542.06
2023-02-23T14:56:46.856Z,99548.94
2023-02-23T14:59:17.811Z,99544.56
2023-02-23T15:01:45.035Z,99541.69
2023-02-23T15:04:13.124Z,99539.84
2023-02-23T15:06:42.454Z,99530.03
2023-02-23T15:09:12.276Z,99537.13
2023-02-23T15:11:39.413Z,99541.25
2023-02-23T15:14:10.518Z,99541.69
2023-02-23T15:16:45.025Z,99531.78
2023-02-23T15:19:16.767Z,99530.94
2023-02-23T15:21:49.861Z,99529.78
2023-02-23T15:24:19.296Z,99531.91
2023-02-23T15:26:46.470Z,99531.88
2023-02-23T15:29:14.996Z,99532.12
2023-02-23T15:31:52.863Z,99534.47
2023-02-23T15:34:21.172Z,99527.66
2023-02-23T15:36:50.217Z,99535.19
2023-02-23T15:39:17.880Z,99522.84
2023-02-23T15:41:46.124Z,99530.94
2023-02-23T15:44:24.200Z,99532.25
2023-02-23T15:46:53.105Z,99533.06
2023-02-23T15:49:21.992Z,99538.94
2023-02-23T15:51:50.316Z,99536.72
2023-02-23T15:54:19.279Z,99532.75
2023-02-23T15:56:50.579Z,99522.91
2023-02-23T15:59:24.004Z,99531.34
2023-02-23T16:01:53.972Z,99529.16
2023-02-23T16:04:23.391Z,99533.59
2023-02-23T16:06:53.419Z,99534.81
2023-02-23T16:09:24.087Z,99528.63
2023-02-23T16:11:52.852Z,99527.78
2023-02-23T16:14:20.420Z,99522.84
2023-02-23T16:17:01.381Z,99524.16
2023-02-23T16:19:40.835Z,99525.41
2023-02-23T16:22:08.110Z,99525.22
2023-02-23T16:24:35.725Z,99526.75
2023-02-23T16:27:03.559Z,99530.38
2023-02-23T16:29:32.589Z,99518.94
2023-02-23T16:32:01.510Z,99528.16
2023-02-23T16:34:31.522Z,99520.03
2023-02-23T16:36:59.549Z,99525.09
2023-02-23T16:39:29.460Z,99524.78
2023-02-23T16:41:58.599Z,99523.91
2023-02-23T16:44:34.368Z,99524.59
2023-02-23T16:47:09.201Z,99519.13
2023-02-23T16:49:36.549Z,99516.44
2023-02-23T16:52:06.552Z,99512.75
2023-02-23T16:54:34.537Z,99509.12
2023-02-23T16:57:11.367Z,99509.12
2023-02-23T16:59:39.079Z,99519.59
2023-02-23T17:02:09.843Z,99524.75
2023-02-23T17:04:37.008Z,99523.88
2023-02-23T17:07:04.689Z,99525.25
2023-02-23T17:09:31.928Z,99523.63
2023-02-23T17:11:59.928Z,99524.75
2023-02-23T17:14:28.197Z,99524.47
2023-02-23T17:16:56.194Z,99526.97
2023-02-23T17:19:25.704Z,99521.81
2023-02-23T17:21:53.629Z,99527.47
2023-02-23T17:24:25.872Z,99530.34
2023-02-23T17:26:53.619Z,99530.28
2023-02-23T17:29:20.995Z,99534.63
2023-02-23T17:31:48.444Z,99531.97
2023-02-23T17:34:17.190Z,99531.84
2023-02-23T17:36:44.485Z,99522.09
2023-02-23T17:39:14.237Z,99529.25
2023-02-23T17:41:41.832Z,99521.28
2023-02-23T17:44:09.334Z,99520.84
2023-02-23T17:46:36.755Z,99524.50
2023-02-23T17:49:04.751Z,99519.50
2023-02-23T17:51:32.190Z,99516.19
2023-02-23T17:53:59.530Z,99517.94
2023-02-23T17:56:28.282Z,99524.62
2023-02-23T17:58:55.487Z,99529.84
2023-02-23T18:01:23.239Z,99521.81
2023-02-23T18:03:51.449Z,99518.34
2023-02-23T18:06:19.835Z,99520.41
2023-02-23T18:08:47.011Z,99516.13
2023-02-23T18:11:18.593Z,99514.50
2023-02-23T18:13:47.956Z,99506.78
2023-02-23T18:16:16.139Z,99503.13
2023-02-23T18:18:44.518Z,99503.69
2023-02-23T18:21:13.018Z,99504.22
2023-02-23T18:23:40.668Z,99501.56
2023-02-23T18:26:15.339Z,99496.31
2023-02-23T18:28:45.787Z,99498.37
2023-02-23T18:31:17.675Z,99498.56
2023-02-23T18:33:46.349Z,99494.09
2023-02-23T18:36:18.228Z,99498.09
2023-02-23T18:38:45.866Z,99493.94
2023-02-23T18:41:13.304Z,99493.78
2023-02-23T18:43:40.989Z,99494.06
2023-02-23T18:46:09.578Z,99495.16
2023-02-23T18:48:37.677Z,99488.03
2023-02-23T18:51:12.384Z,99491.09
2023-02-23T18:53:40.249Z,99486.94
2023-02-23T18:56:08.296Z,99488.16
2023-02-23T18:58:35.755Z,99489.53
2023-02-23T19:01:10.094Z,99482.63
2023-02-23T19:03:37.557Z,99480.78
2023-02-23T19:06:10.491Z,99486.22
2023-02-23T19:08:38.103Z,99480.81
2023-02-23T19:11:05.805Z,99485.56
2023-02-23T19:13:33.213Z,99481.69
2023-02-23T19:16:09.726Z,99483.53
2023-02-23T19:18:37.225Z,99484.22
2023-02-23T19:21:04.938Z,99486.44
2023-02-23T19:23:32.559Z,99482.06
2023-02-23T19:26:02.528Z,99488.47
2023-02-23T19:28:30.228Z,99484.34
2023-02-23T19:31:03.034Z,99485.25
2023-02-23T19:33:30.846Z,99486.34
2023-02-23T19:36:01.192Z,99487.31
2023-02-23T19:38:28.657Z,99478.97
2023-02-23T19:40:57.343Z,99483.63
2023-02-23T19:43:24.782Z,99484.88
2023-02-23T19:45:52.473Z,99488.06
2023-02-23T19:48:20.471Z,99488.44
2023-02-23T19:50:48.170Z,99482.81
2023-02-23T19:53:16.217Z,99492.16
2023-02-23T19:55:45.281Z,99494.09
2023-02-23T19:58:12.576Z,99491.16
2023-02-23T20:00:39.993Z,99489.75
2023-02-23T20:03:07.537Z,99491.56
2023-02-23T20:05:42.275Z,99485.91
2023-02-23T20:08:10.031Z,99492.09
2023-02-23T20:10:41.544Z,99484.69
2023-02-23T20:13:10.651Z,99486.78
2023-02-23T20:15:38.296Z,99486.75
2023-02-23T20:18:07.317Z,99483.25
2023-02-23T20:20:35.924Z,99481.09
2023-02-23T20:23:07.770Z,99482.34
2023-02-23T20:25:36.359Z,99479.97
2023-02-23T20:28:04.177Z,99473.97
2023-02-23T20:30:31.647Z,99475.56
2023-02-23T20:32:59.081Z,99466.97
2023-02-23T20:35:27.823Z,99469.28
2023-02-23T20:37:55.197Z,99469.91
2023-02-23T20:40:23.224Z,99463.91
2023-02-23T20:42:51.592Z,99460.59
2023-02-23T20:45:20.034Z,99460.97
2023-02-23T20:47:51.942Z,99459.09
2023-02-23T20:50:21.630Z,99458.59
2023-02-23T20:52:49.180Z,99459.87
2023-02-23T20:55:18.794Z,99464.72
2023-02-23T20:57:47.725Z,99452.28
2023-02-23T21:00:20.283Z,99450.66
2023-02-23T21:02:48.155Z,99457.88
2023-02-23T21:05:15.652Z,99458.88
2023-02-23T21:07:43.073Z,99458.78
2023-02-23T21:10:13.875Z,99455.31
2023-02-23T21:12:41.417Z,99459.56
2023-02-23T21:15:09.416Z,99459.13
2023-02-23T21:17:38.572Z,99451.50
2023-02-23T21:20:06.801Z,99448.69
2023-02-23T21:22:34.667Z,99451.94
2023-02-23T21:25:02.233Z,99446.84
2023-02-23T21:27:29.582Z,99445.28
2023-02-23T21:29:56.911Z,99452.28
2023-02-23T21:32:27.162Z,99448.97
2023-02-23T21:34:54.721Z,99443.88
2023-02-23T21:37:25.305Z,99442.09
2023-02-23T21:39:53.199Z,99440.75
2023-02-23T21:42:23.664Z,99436.63
2023-02-23T21:44:51.195Z,99431.25
2023-02-23T21:47:18.763Z,99429.44
2023-02-23T21:49:49.267Z,99435.47
2023-02-23T21:52:16.837Z,99431.81
2023-02-23T21:54:48.232Z,99430.63
2023-02-23T21:57:15.718Z,99434.00
2023-02-23T21:59:43.052Z,99425.59
2023-02-23T22:02:11.016Z,99424.47
2023-02-23T22:04:38.934Z,99423.34
2023-02-23T22:07:06.467Z,99415.50
2023-02-23T22:09:33.812Z,99427.22
2023-02-23T22:12:01.553Z,99416.56
2023-02-23T22:14:28.709Z,99414.00
2023-02-23T22:16:55.917Z,99416.78
2023-02-23T22:19:23.369Z,99417.41
2023-02-23T22:21:50.531Z,99406.94
2023-02-23T22:24:17.808Z,99413.16
2023-02-23T22:26:55.129Z,99404.28
2023-02-23T22:29:23.269Z,99400.22
2023-02-23T22:31:50.946Z,99407.91
2023-02-23T22:34:18.772Z,99404.38
2023-02-23T22:36:45.925Z,99402.81
2023-02-23T22:39:16.321Z,99401.41
2023-02-23T22:41:43.647Z,99393.47
2023-02-23T22:44:16.760Z,99396.47
2023-02-23T22:46:46.551Z,99391.19
2023-02-23T22:49:15.779Z,99389.50
2023-02-23T22:51:43.481Z,99390.63
2023-02-23T22:54:13.317Z,99383.56
2023-02-23T22:56:42.262Z,99377.31
2023-02-23T22:59:11.096Z,99374.47
2023-02-23T23:01:38.828Z,99382.19
2023-02-23T23:04:12.549Z,99373.34
2023-02-23T23:06:40.891Z,99375.25
2023-02-23T23:09:08.829Z,99369.25
2023-02-23T23:11:41.875Z,99371.66
2023-02-23T23:14:10.391Z,99370.69
2023-02-23T23:16:47.506Z,99363.75
2023-02-23T23:19:16.808Z,99368.03
2023-02-23T23:21:45.136Z,99366.38
2023-02-23T23:24:13.513Z,99368.44
2023-02-23T23:26:42.948Z,99372.66
2023-02-23T23:29:11.344Z,99372.94
2023-02-23T23:31:39.200Z,99370.22
2023-02-23T23:34:09.318Z,99363.09
2023-02-23T23:36:37.930Z,99364.97
2023-02-23T23:39:06.216Z,99349.38
2023-02-23T23:41:35.467Z,99351.44
2023-02-23T23:44:05.066Z,99351.28
2023-02-23T23:46:37.665Z,99343.13
2023-02-23T23:49:06.524Z,99340.91
2023-02-23T23:51:38.788Z,99345.09
2023-02-23T23:54:07.703Z,99329.31
2023-02-23T23:56:35.933Z,99338.06
2023-02-23T23:59:07.212Z,99337.37
